sensor_id;sensor_type;location;lat;lon;timestamp;temperature;humidity
76759;DHT22;65701;45.588;5.186;2024-01-15T07:01:14;4.25;80.09
76759;DHT22;65701;45.588;5.186;2024-01-15T07:03:41;4.30;80.06
76759;DHT22;65701;45.588;5.186;2024-01-15T07:06:07;4.30;80.06
76759;DHT22;65701;45.588;5.186;2024-01-15T07:08:33;4.34;80.11
76759;DHT22;65701;45.588;5.186;2024-01-15T07:10:58;4.33;80.08
76759;DHT22;65701;45.588;5.186;2024-01-15T07:13:24;4.33;80.06
76759;DHT22;65701;45.588;5.186;2024-01-15T07:15:49;4.34;80.14
76759;DHT22;65701;45.588;5.186;2024-01-15T07:18:15;4.34;80.21
76759;DHT22;65701;45.588;5.186;2024-01-15T07:20:42;4.33;80.18
76759;DHT22;65701;45.588;5.186;2024-01-15T07:23:07;4.33;80.17
76759;DHT22;65701;45.588;5.186;2024-01-15T07:25:33;4.35;80.16
76759;DHT22;65701;45.588;5.186;2024-01-15T07:27:59;4.34;80.19
76759;DHT22;65701;45.588;5.186;2024-01-15T07:30:24;4.33;80.20
76759;DHT22;65701;45.588;5.186;2024-01-15T07:32:50;4.37;80.22
76759;DHT22;65701;45.588;5.186;2024-01-15T07:35:16;4.35;80.27
76759;DHT22;65701;45.588;5.186;2024-01-15T07:37:42;4.40;80.31
76759;DHT22;65701;45.588;5.186;2024-01-15T07:40:07;4.37;80.38
76759;DHT22;65701;45.588;5.186;2024-01-15T09:41:41;5.16;81.13
76759;DHT22;65701;45.588;5.186;2024-01-15T09:44:07;5.17;81.08
76759;DHT22;65701;45.588;5.186;2024-01-15T09:46:34;5.20;81.10
76759;DHT22;65701;45.588;5.186;2024-01-15T09:49:00;5.24;80.99
76759;DHT22;65701;45.588;5.186;2024-01-15T09:51:30;5.27;80.95
76759;DHT22;65701;45.588;5.186;2024-01-15T09:53:57;5.28;80.92
76759;DHT22;65701;45.588;5.186;2024-01-15T09:56:23;5.32;80.86
76759;DHT22;65701;45.588;5.186;2024-01-15T09:58:49;5.35;80.90
76759;DHT22;65701;45.588;5.186;2024-01-15T10:01:17;5.39;80.90
76759;DHT22;65701;45.588;5.186;2024-01-15T10:03:42;5.42;80.88
76759;DHT22;65701;45.588;5.186;2024-01-15T10:06:08;5.44;81.05
76759;DHT22;65701;45.588;5.186;2024-01-15T10:08:36;5.46;81.05
76759;DHT22;65701;45.588;5.186;2024-01-15T10:11:02;5.51;80.99
76759;DHT22;65701;45.588;5.186;2024-01-15T10:13:34;5.51;80.93
76759;DHT22;65701;45.588;5.186;2024-01-15T10:16:00;5.56;80.94
76759;DHT22;65701;45.588;5.186;2024-01-15T10:18:28;5.56;80.88
76759;DHT22;65701;45.588;5.186;2024-01-15T10:20:53;5.60;80.81
76759;DHT22;65701;45.588;5.186;2024-01-15T10:23:19;5.59;80.84
76759;DHT22;65701;45.588;5.186;2024-01-15T10:25:44;5.62;80.88
76759;DHT22;65701;45.588;5.186;2024-01-15T10:28:10;5.67;80.85
76759;DHT22;65701;45.588;5.186;2024-01-15T10:30:35;5.73;80.85
76759;DHT22;65701;45.588;5.186;2024-01-15T10:33:03;5.73;80.88
76759;DHT22;65701;45.588;5.186;2024-01-15T10:35:30;5.77;80.82
76759;DHT22;65701;45.588;5.186;2024-01-15T10:37:56;5.77;80.86
76759;DHT22;65701;45.588;5.186;2024-01-15T10:40:22;5.79;80.95
76759;DHT22;65701;45.588;5.186;2024-01-15T10:42:47;5.67;81.11
76759;DHT22;65701;45.588;5.186;2024-01-15T10:45:15;5.70;81.27
76759;DHT22;65701;45.588;5.186;2024-01-15T10:47:42;5.69;81.35
76759;DHT22;65701;45.588;5.186;2024-01-15T10:50:08;5.62;81.71
76759;DHT22;65701;45.588;5.186;2024-01-15T10:52:36;5.65;82.02
76759;DHT22;65701;45.588;5.186;2024-01-15T10:55:03;5.69;81.97
76759;DHT22;65701;45.588;5.186;2024-01-15T10:57:30;5.69;81.79
76759;DHT22;65701;45.588;5.186;2024-01-15T10:59:55;5.73;81.62
76759;DHT22;65701;45.588;5.186;2024-01-15T11:02:21;5.72;81.44
76759;DHT22;65701;45.588;5.186;2024-01-15T11:04:49;5.73;81.22
76759;DHT22;65701;45.588;5.186;2024-01-15T11:07:15;5.70;81.17
76759;DHT22;65701;45.588;5.186;2024-01-15T11:09:40;5.69;81.16
76759;DHT22;65701;45.588;5.186;2024-01-15T11:12:10;5.65;81.17
76759;DHT22;65701;45.588;5.186;2024-01-15T11:14:40;5.58;81.26
76759;DHT22;65701;45.588;5.186;2024-01-15T11:17:09;5.56;81.37
76759;DHT22;65701;45.588;5.186;2024-01-15T11:22:47;5.51;81.60
76759;DHT22;65701;45.588;5.186;2024-01-15T11:24:57;5.42;81.88
76759;DHT22;65701;45.588;5.186;2024-01-15T11:30:14;5.45;82.21
76759;DHT22;65701;45.588;5.186;2024-01-15T11:32:40;5.46;82.28
76759;DHT22;65701;45.588;5.186;2024-01-15T11:35:09;5.49;82.30
76759;DHT22;65701;45.588;5.186;2024-01-15T11:40:39;5.49;82.28
76759;DHT22;65701;45.588;5.186;2024-01-15T11:43:06;5.51;82.22
76759;DHT22;65701;45.588;5.186;2024-01-15T11:45:34;5.49;82.23
76759;DHT22;65701;45.588;5.186;2024-01-15T11:50:30;5.46;81.96
76759;DHT22;65701;45.588;5.186;2024-01-15T11:53:03;5.51;81.86
76759;DHT22;65701;45.588;5.186;2024-01-15T11:55:38;5.54;81.75
76759;DHT22;65701;45.588;5.186;2024-01-15T11:58:08;5.55;81.61
76759;DHT22;65701;45.588;5.186;2024-01-15T12:00:44;5.56;81.61
76759;DHT22;65701;45.588;5.186;2024-01-15T12:03:10;5.54;81.68
76759;DHT22;65701;45.588;5.186;2024-01-15T12:05:37;5.56;81.53
76759;DHT22;65701;45.588;5.186;2024-01-15T12:08:03;5.55;81.67
76759;DHT22;65701;45.588;5.186;2024-01-15T12:10:32;5.52;81.95
76759;DHT22;65701;45.588;5.186;2024-01-15T12:13:12;5.52;81.93
76759;DHT22;65701;45.588;5.186;2024-01-15T12:15:39;5.54;82.04
76759;DHT22;65701;45.588;5.186;2024-01-15T12:18:09;5.59;81.93
76759;DHT22;65701;45.588;5.186;2024-01-15T12:20:34;5.56;82.00
76759;DHT22;65701;45.588;5.186;2024-01-15T12:23:01;5.54;82.12
76759;DHT22;65701;45.588;5.186;2024-01-15T12:25:31;5.58;82.28
76759;DHT22;65701;45.588;5.186;2024-01-15T12:27:57;5.59;82.07
76759;DHT22;65701;45.588;5.186;2024-01-15T12:30:23;5.63;82.00
76759;DHT22;65701;45.588;5.186;2024-01-15T12:32:49;5.65;82.05
76759;DHT22;65701;45.588;5.186;2024-01-15T12:35:15;5.65;82.08
76759;DHT22;65701;45.588;5.186;2024-01-15T12:37:43;5.66;82.07
76759;DHT22;65701;45.588;5.186;2024-01-15T12:40:10;5.69;81.96
76759;DHT22;65701;45.588;5.186;2024-01-15T12:42:36;5.65;82.10
76759;DHT22;65701;45.588;5.186;2024-01-15T12:45:03;5.66;82.12
76759;DHT22;65701;45.588;5.186;2024-01-15T12:47:30;5.69;82.06
76759;DHT22;65701;45.588;5.186;2024-01-15T12:49:57;5.72;81.95
76759;DHT22;65701;45.588;5.186;2024-01-15T12:52:22;5.70;81.96
76759;DHT22;65701;45.588;5.186;2024-01-15T12:54:49;5.70;81.77
76759;DHT22;65701;45.588;5.186;2024-01-15T12:57:15;5.70;81.68
76759;DHT22;65701;45.588;5.186;2024-01-15T12:59:41;5.74;81.55
76759;DHT22;65701;45.588;5.186;2024-01-15T13:02:06;5.74;81.57
76759;DHT22;65701;45.588;5.186;2024-01-15T13:04:32;5.70;81.65
76759;DHT22;65701;45.588;5.186;2024-01-15T13:06:57;5.74;81.69
76759;DHT22;65701;45.588;5.186;2024-01-15T13:09:23;5.73;81.70
76759;DHT22;65701;45.588;5.186;2024-01-15T13:11:48;5.77;81.73
76759;DHT22;65701;45.588;5.186;2024-01-15T13:14:14;5.79;81.83
76759;DHT22;65701;45.588;5.186;2024-01-15T13:16:42;5.79;81.94
76759;DHT22;65701;45.588;5.186;2024-01-15T13:19:09;5.77;82.19
76759;DHT22;65701;45.588;5.186;2024-01-15T13:21:42;5.80;82.15
76759;DHT22;65701;45.588;5.186;2024-01-15T13:24:08;5.85;82.08
76759;DHT22;65701;45.588;5.186;2024-01-15T13:26:35;5.89;82.08
76759;DHT22;65701;45.588;5.186;2024-01-15T13:29:02;5.91;81.97
76759;DHT22;65701;45.588;5.186;2024-01-15T13:31:32;5.94;82.03
76759;DHT22;65701;45.588;5.186;2024-01-15T13:33:58;5.97;81.89
76759;DHT22;65701;45.588;5.186;2024-01-15T13:36:24;6.03;81.86
76759;DHT22;65701;45.588;5.186;2024-01-15T13:38:51;6.01;81.76
76759;DHT22;65701;45.588;5.186;2024-01-15T13:41:18;6.06;81.82
76759;DHT22;65701;45.588;5.186;2024-01-15T13:43:55;6.07;81.82
76759;DHT22;65701;45.588;5.186;2024-01-15T13:46:24;6.08;81.75
76759;DHT22;65701;45.588;5.186;2024-01-15T13:48:49;6.08;81.79
76759;DHT22;65701;45.588;5.186;2024-01-15T13:51:15;6.14;81.83
76759;DHT22;65701;45.588;5.186;2024-01-15T13:53:41;6.17;81.76
76759;DHT22;65701;45.588;5.186;2024-01-15T13:56:07;6.24;81.78
76759;DHT22;65701;45.588;5.186;2024-01-15T13:58:33;6.27;81.76
76759;DHT22;65701;45.588;5.186;2024-01-15T14:01:00;6.29;81.80
76759;DHT22;65701;45.588;5.186;2024-01-15T14:03:25;6.35;81.84
76759;DHT22;65701;45.588;5.186;2024-01-15T14:05:51;6.38;81.78
76759;DHT22;65701;45.588;5.186;2024-01-15T14:08:17;6.41;81.67
76759;DHT22;65701;45.588;5.186;2024-01-15T14:10:42;6.42;81.60
76759;DHT22;65701;45.588;5.186;2024-01-15T14:13:08;6.42;81.53
76759;DHT22;65701;45.588;5.186;2024-01-15T14:15:34;6.46;81.53
76759;DHT22;65701;45.588;5.186;2024-01-15T14:17:59;6.45;81.45
76759;DHT22;65701;45.588;5.186;2024-01-15T14:20:26;6.44;81.35
76759;DHT22;65701;45.588;5.186;2024-01-15T14:22:53;6.44;81.35
76759;DHT22;65701;45.588;5.186;2024-01-15T14:25:22;6.38;81.26
76759;DHT22;65701;45.588;5.186;2024-01-15T14:27:48;6.38;81.22
76759;DHT22;65701;45.588;5.186;2024-01-15T14:30:13;6.39;81.23
76759;DHT22;65701;45.588;5.186;2024-01-15T14:32:41;6.37;81.26
76759;DHT22;65701;45.588;5.186;2024-01-15T14:35:07;6.39;81.28
76759;DHT22;65701;45.588;5.186;2024-01-15T14:37:36;6.39;81.40
76759;DHT22;65701;45.588;5.186;2024-01-15T14:40:02;6.39;81.47
76759;DHT22;65701;45.588;5.186;2024-01-15T14:42:29;6.37;81.46
76759;DHT22;65701;45.588;5.186;2024-01-15T14:44:55;6.37;81.38
76759;DHT22;65701;45.588;5.186;2024-01-15T14:47:20;6.34;81.30
76759;DHT22;65701;45.588;5.186;2024-01-15T14:49:49;6.31;81.34
76759;DHT22;65701;45.588;5.186;2024-01-15T14:52:14;6.28;81.34
76759;DHT22;65701;45.588;5.186;2024-01-15T14:54:40;6.25;81.35
76759;DHT22;65701;45.588;5.186;2024-01-15T14:57:06;6.21;81.43
76759;DHT22;65701;45.588;5.186;2024-01-15T14:59:32;6.21;81.35
76759;DHT22;65701;45.588;5.186;2024-01-15T15:01:57;6.17;81.38
76759;DHT22;65701;45.588;5.186;2024-01-15T15:04:23;6.10;81.49
76759;DHT22;65701;45.588;5.186;2024-01-15T15:06:48;6.03;81.57
76759;DHT22;65701;45.588;5.186;2024-01-15T15:09:15;6.01;81.61
76759;DHT22;65701;45.588;5.186;2024-01-15T15:11:41;5.97;81.68
76759;DHT22;65701;45.588;5.186;2024-01-15T15:14:06;5.94;81.80
76759;DHT22;65701;45.588;5.186;2024-01-15T15:16:32;5.87;81.87
76759;DHT22;65701;45.588;5.186;2024-01-15T15:18:58;5.85;81.99
76759;DHT22;65701;45.588;5.186;2024-01-15T15:21:23;5.77;82.00
76759;DHT22;65701;45.588;5.186;2024-01-15T15:23:49;5.73;82.08
76759;DHT22;65701;45.588;5.186;2024-01-15T15:26:14;5.69;82.13
76759;DHT22;65701;45.588;5.186;2024-01-15T15:28:40;5.66;82.20
76759;DHT22;65701;45.588;5.186;2024-01-15T15:31:06;5.66;82.28
76759;DHT22;65701;45.588;5.186;2024-01-15T15:33:33;5.62;82.26
76759;DHT22;65701;45.588;5.186;2024-01-15T15:35:59;5.58;82.41
76759;DHT22;65701;45.588;5.186;2024-01-15T15:38:32;5.54;82.62
76759;DHT22;65701;45.588;5.186;2024-01-15T15:40:58;5.52;82.74
76759;DHT22;65701;45.588;5.186;2024-01-15T15:43:27;5.46;82.69
76759;DHT22;65701;45.588;5.186;2024-01-15T15:45:53;5.54;82.57
76759;DHT22;65701;45.588;5.186;2024-01-15T15:48:18;5.51;82.50
76759;DHT22;65701;45.588;5.186;2024-01-15T15:50:44;5.51;82.45
76759;DHT22;65701;45.588;5.186;2024-01-15T15:53:10;5.49;82.50
76759;DHT22;65701;45.588;5.186;2024-01-15T15:55:35;5.51;82.42
76759;DHT22;65701;45.588;5.186;2024-01-15T15:58:05;5.51;82.68
76759;DHT22;65701;45.588;5.186;2024-01-15T16:00:31;5.49;82.92
76759;DHT22;65701;45.588;5.186;2024-01-15T16:02:57;5.46;82.93
76759;DHT22;65701;45.588;5.186;2024-01-15T16:05:22;5.45;83.15
76759;DHT22;65701;45.588;5.186;2024-01-15T16:07:48;5.51;83.06
76759;DHT22;65701;45.588;5.186;2024-01-15T16:10:14;5.46;83.01
76759;DHT22;65701;45.588;5.186;2024-01-15T16:12:40;5.45;83.09
76759;DHT22;65701;45.588;5.186;2024-01-15T16:15:22;5.45;83.15
76759;DHT22;65701;45.588;5.186;2024-01-15T16:17:49;5.42;83.13
76759;DHT22;65701;45.588;5.186;2024-01-15T16:20:16;5.36;83.22
76759;DHT22;65701;45.588;5.186;2024-01-15T16:22:41;5.34;83.22
76759;DHT22;65701;45.588;5.186;2024-01-15T16:25:07;5.31;83.47
76759;DHT22;65701;45.588;5.186;2024-01-15T16:27:32;5.28;83.39
76759;DHT22;65701;45.588;5.186;2024-01-15T16:29:58;5.27;83.34
76759;DHT22;65701;45.588;5.186;2024-01-15T16:32:24;5.27;83.51
76759;DHT22;65701;45.588;5.186;2024-01-15T16:34:50;5.28;83.35
76759;DHT22;65701;45.588;5.186;2024-01-15T16:37:16;5.25;83.24
76759;DHT22;65701;45.588;5.186;2024-01-15T16:39:41;5.24;83.14
76759;DHT22;65701;45.588;5.186;2024-01-15T16:42:08;5.21;83.08
76759;DHT22;65701;45.588;5.186;2024-01-15T16:44:34;5.20;83.07
76759;DHT22;65701;45.588;5.186;2024-01-15T16:47:00;5.21;83.14
76759;DHT22;65701;45.588;5.186;2024-01-15T16:49:27;5.20;83.15
76759;DHT22;65701;45.588;5.186;2024-01-15T16:51:54;5.07;83.26
76759;DHT22;65701;45.588;5.186;2024-01-15T16:54:20;5.04;83.54
76759;DHT22;65701;45.588;5.186;2024-01-15T16:56:46;4.99;83.54
76759;DHT22;65701;45.588;5.186;2024-01-15T16:59:12;4.84;83.68
76759;DHT22;65701;45.588;5.186;2024-01-15T17:01:38;4.79;84.14
76759;DHT22;65701;45.588;5.186;2024-01-15T17:04:03;4.80;84.30
76759;DHT22;65701;45.588;5.186;2024-01-15T17:06:31;4.69;84.26
76759;DHT22;65701;45.588;5.186;2024-01-15T17:08:57;4.52;84.44
76759;DHT22;65701;45.588;5.186;2024-01-15T17:11:22;4.58;84.37
76759;DHT22;65701;45.588;5.186;2024-01-15T17:13:49;4.59;84.26
76759;DHT22;65701;45.588;5.186;2024-01-15T17:16:15;4.49;84.32
76759;DHT22;65701;45.588;5.186;2024-01-15T17:18:40;4.45;84.23
76759;DHT22;65701;45.588;5.186;2024-01-15T17:21:06;4.34;84.43
76759;DHT22;65701;45.588;5.186;2024-01-15T17:23:31;4.41;84.55
76759;DHT22;65701;45.588;5.186;2024-01-15T17:25:57;4.38;84.30
76759;DHT22;65701;45.588;5.186;2024-01-15T17:28:23;4.34;84.49
76759;DHT22;65701;45.588;5.186;2024-01-15T17:30:49;4.30;84.65
76759;DHT22;65701;45.588;5.186;2024-01-15T17:33:15;4.31;84.76
76759;DHT22;65701;45.588;5.186;2024-01-15T17:35:42;4.24;84.68
76759;DHT22;65701;45.588;5.186;2024-01-15T17:38:08;4.35;84.65
76759;DHT22;65701;45.588;5.186;2024-01-15T17:40:33;4.38;84.46
76759;DHT22;65701;45.588;5.186;2024-01-15T17:43:01;4.42;84.33
76759;DHT22;65701;45.588;5.186;2024-01-15T17:45:27;4.45;84.16
76759;DHT22;65701;45.588;5.186;2024-01-15T17:47:54;4.48;84.02
76759;DHT22;65701;45.588;5.186;2024-01-15T17:50:20;4.49;83.86
76759;DHT22;65701;45.588;5.186;2024-01-15T17:52:46;4.52;83.72
76759;DHT22;65701;45.588;5.186;2024-01-15T17:55:11;4.55;83.58
76759;DHT22;65701;45.588;5.186;2024-01-15T17:57:37;4.58;83.53
76759;DHT22;65701;45.588;5.186;2024-01-15T18:00:03;4.62;83.45
76759;DHT22;65701;45.588;5.186;2024-01-15T18:02:30;4.66;83.41
76759;DHT22;65701;45.588;5.186;2024-01-15T18:04:56;4.69;83.32
76759;DHT22;65701;45.588;5.186;2024-01-15T18:07:22;4.73;83.22
76759;DHT22;65701;45.588;5.186;2024-01-15T18:09:48;4.77;83.19
76759;DHT22;65701;45.588;5.186;2024-01-15T18:12:14;4.76;83.09
76759;DHT22;65701;45.588;5.186;2024-01-15T18:14:39;4.76;82.98
76759;DHT22;65701;45.588;5.186;2024-01-15T18:17:05;4.77;82.82
76759;DHT22;65701;45.588;5.186;2024-01-15T18:19:30;4.79;82.74
76759;DHT22;65701;45.588;5.186;2024-01-15T18:21:56;4.79;82.70
76759;DHT22;65701;45.588;5.186;2024-01-15T18:24:22;4.79;82.64
76759;DHT22;65701;45.588;5.186;2024-01-15T18:26:50;4.76;82.51
76759;DHT22;65701;45.588;5.186;2024-01-15T18:29:16;4.77;82.39
76759;DHT22;65701;45.588;5.186;2024-01-15T18:31:43;4.79;82.32
76759;DHT22;65701;45.588;5.186;2024-01-15T18:34:09;4.82;82.30
76759;DHT22;65701;45.588;5.186;2024-01-15T18:36:37;4.82;82.19
76759;DHT22;65701;45.588;5.186;2024-01-15T18:39:03;4.80;82.06
76759;DHT22;65701;45.588;5.186;2024-01-15T18:41:32;4.80;81.97
76759;DHT22;65701;45.588;5.186;2024-01-15T18:43:58;4.76;81.93
76759;DHT22;65701;45.588;5.186;2024-01-15T18:46:24;4.79;81.86
76759;DHT22;65701;45.588;5.186;2024-01-15T18:48:49;4.73;81.77
76759;DHT22;65701;45.588;5.186;2024-01-15T18:51:22;4.75;81.71
76759;DHT22;65701;45.588;5.186;2024-01-15T18:53:48;4.69;81.69
76759;DHT22;65701;45.588;5.186;2024-01-15T18:56:14;4.68;81.59
76759;DHT22;65701;45.588;5.186;2024-01-15T18:58:39;4.65;81.49
76759;DHT22;65701;45.588;5.186;2024-01-15T19:01:09;4.62;81.45
76759;DHT22;65701;45.588;5.186;2024-01-15T19:03:35;4.58;81.44
76759;DHT22;65701;45.588;5.186;2024-01-15T19:06:00;4.56;81.45
76759;DHT22;65701;45.588;5.186;2024-01-15T19:08:26;4.55;81.41
76759;DHT22;65701;45.588;5.186;2024-01-15T19:10:52;4.52;81.38
76759;DHT22;65701;45.588;5.186;2024-01-15T19:13:19;4.49;81.35
76759;DHT22;65701;45.588;5.186;2024-01-15T19:15:44;4.45;81.31
76759;DHT22;65701;45.588;5.186;2024-01-15T19:18:10;4.42;81.29
76759;DHT22;65701;45.588;5.186;2024-01-15T19:20:36;4.40;81.14
76759;DHT22;65701;45.588;5.186;2024-01-15T19:23:01;4.35;81.03
76759;DHT22;65701;45.588;5.186;2024-01-15T19:25:27;4.31;80.93
76759;DHT22;65701;45.588;5.186;2024-01-15T19:27:53;4.25;80.89
76759;DHT22;65701;45.588;5.186;2024-01-15T19:30:18;4.20;80.80
76759;DHT22;65701;45.588;5.186;2024-01-15T19:32:44;4.17;80.78
76759;DHT22;65701;45.588;5.186;2024-01-15T19:35:10;4.08;80.72
76759;DHT22;65701;45.588;5.186;2024-01-15T19:37:35;4.07;80.67
76759;DHT22;65701;45.588;5.186;2024-01-15T19:40:02;4.03;80.65
76759;DHT22;65701;45.588;5.186;2024-01-15T19:42:28;4.03;80.74
76759;DHT22;65701;45.588;5.186;2024-01-15T19:44:53;4.00;80.79
76759;DHT22;65701;45.588;5.186;2024-01-15T19:47:19;3.94;80.71
76759;DHT22;65701;45.588;5.186;2024-01-15T19:49:45;3.87;80.47
76759;DHT22;65701;45.588;5.186;2024-01-15T19:52:13;3.83;80.49
76759;DHT22;65701;45.588;5.186;2024-01-15T19:54:38;3.78;80.47
76759;DHT22;65701;45.588;5.186;2024-01-15T19:57:04;3.72;80.39
76759;DHT22;65701;45.588;5.186;2024-01-15T19:59:30;3.66;80.34
76759;DHT22;65701;45.588;5.186;2024-01-15T20:01:57;3.61;80.37
76759;DHT22;65701;45.588;5.186;2024-01-15T20:04:23;3.52;80.37
76759;DHT22;65701;45.588;5.186;2024-01-15T20:06:49;3.45;80.31
76759;DHT22;65701;45.588;5.186;2024-01-15T20:09:14;3.41;80.28
76759;DHT22;65701;45.588;5.186;2024-01-15T20:11:40;3.34;80.29
76759;DHT22;65701;45.588;5.186;2024-01-15T20:14:07;3.31;80.31
76759;DHT22;65701;45.588;5.186;2024-01-15T20:16:33;3.28;80.31
76759;DHT22;65701;45.588;5.186;2024-01-15T20:18:58;3.28;80.38
76759;DHT22;65701;45.588;5.186;2024-01-15T20:21:25;3.24;80.36
76759;DHT22;65701;45.588;5.186;2024-01-15T20:23:51;3.21;80.39
76759;DHT22;65701;45.588;5.186;2024-01-15T20:26:17;3.14;80.29
76759;DHT22;65701;45.588;5.186;2024-01-15T20:28:42;3.10;80.22
76759;DHT22;65701;45.588;5.186;2024-01-15T20:31:14;3.03;80.18
76759;DHT22;65701;45.588;5.186;2024-01-15T20:33:40;2.99;80.19
76759;DHT22;65701;45.588;5.186;2024-01-15T20:36:06;2.93;80.21
76759;DHT22;65701;45.588;5.186;2024-01-15T20:38:32;2.90;80.27
76759;DHT22;65701;45.588;5.186;2024-01-15T20:40:58;2.89;80.37
76759;DHT22;65701;45.588;5.186;2024-01-15T20:43:24;2.89;80.39
76759;DHT22;65701;45.588;5.186;2024-01-15T20:45:49;2.86;80.45
76759;DHT22;65701;45.588;5.186;2024-01-15T20:48:15;2.89;80.47
76759;DHT22;65701;45.588;5.186;2024-01-15T20:50:45;2.89;80.51
76759;DHT22;65701;45.588;5.186;2024-01-15T20:53:11;2.92;80.54
76759;DHT22;65701;45.588;5.186;2024-01-15T20:55:39;2.89;80.56
76759;DHT22;65701;45.588;5.186;2024-01-15T20:58:23;2.87;80.50
76759;DHT22;65701;45.588;5.186;2024-01-15T21:00:49;2.86;80.50
76759;DHT22;65701;45.588;5.186;2024-01-15T21:03:17;2.89;80.51
76759;DHT22;65701;45.588;5.186;2024-01-15T21:05:43;2.86;80.56
76759;DHT22;65701;45.588;5.186;2024-01-15T21:08:36;2.83;80.49
76759;DHT22;65701;45.588;5.186;2024-01-15T21:11:14;2.82;80.41
76759;DHT22;65701;45.588;5.186;2024-01-15T21:13:40;2.79;80.26
76759;DHT22;65701;45.588;5.186;2024-01-15T21:16:05;2.75;80.11
76759;DHT22;65701;45.588;5.186;2024-01-15T21:18:34;2.75;80.08
76759;DHT22;65701;45.588;5.186;2024-01-15T21:21:44;2.69;80.10
76759;DHT22;65701;45.588;5.186;2024-01-15T21:23:54;2.68;80.13
76759;DHT22;65701;45.588;5.186;2024-01-15T21:26:19;2.56;80.17
76759;DHT22;65701;45.588;5.186;2024-01-15T21:28:45;2.55;80.25
76759;DHT22;65701;45.588;5.186;2024-01-15T21:31:10;2.56;80.29
76759;DHT22;65701;45.588;5.186;2024-01-15T21:33:36;2.52;80.32
76759;DHT22;65701;45.588;5.186;2024-01-15T21:36:04;2.48;80.33
76759;DHT22;65701;45.588;5.186;2024-01-15T21:38:31;2.48;80.31
76759;DHT22;65701;45.588;5.186;2024-01-15T21:40:56;2.46;80.36
76759;DHT22;65701;45.588;5.186;2024-01-15T21:43:22;2.42;80.33
76759;DHT22;65701;45.588;5.186;2024-01-15T21:45:47;2.42;80.18
76759;DHT22;65701;45.588;5.186;2024-01-15T21:48:13;2.38;80.03
76759;DHT22;65701;45.588;5.186;2024-01-15T21:50:39;2.34;79.96
76759;DHT22;65701;45.588;5.186;2024-01-15T21:53:06;2.30;79.98
76759;DHT22;65701;45.588;5.186;2024-01-15T21:55:31;2.28;80.12
76759;DHT22;65701;45.588;5.186;2024-01-15T21:57:57;2.31;80.24
76759;DHT22;65701;45.588;5.186;2024-01-15T22:00:22;2.31;80.26
76759;DHT22;65701;45.588;5.186;2024-01-15T22:02:48;2.25;80.16
76759;DHT22;65701;45.588;5.186;2024-01-15T22:05:13;2.27;80.26
76759;DHT22;65701;45.588;5.186;2024-01-15T22:07:42;2.24;80.36
76759;DHT22;65701;45.588;5.186;2024-01-15T22:10:09;2.25;80.39
76759;DHT22;65701;45.588;5.186;2024-01-15T22:12:35;2.25;80.43
76759;DHT22;65701;45.588;5.186;2024-01-15T22:15:00;2.24;80.42
76759;DHT22;65701;45.588;5.186;2024-01-15T22:17:26;2.27;80.43
76759;DHT22;65701;45.588;5.186;2024-01-15T22:19:51;2.27;80.42
76759;DHT22;65701;45.588;5.186;2024-01-15T22:22:20;2.25;80.37
76759;DHT22;65701;45.588;5.186;2024-01-15T22:24:45;2.25;80.43
76759;DHT22;65701;45.588;5.186;2024-01-15T22:27:12;2.25;80.43
